Terminal Aerodrome Forecast
Issued by NWS

Home | Current Version | Previous Version | Text Only | Print | Product List | Glossary On
Versions: 1 2 3 4 5 6 7 8 9 10 11 12 13 14 15
000
FTUS45 KVEF 222320
TAFEED
TAF
KEED 222320Z 2300/2324 26010G17KT P6SM VCSH SCT080 BKN110
      TEMPO 2300/2302 -SHRA FEW060 BKN080
     FM230700 29008KT P6SM SCT080 SCT150
     FM231600 16007KT P6SM FEW100 SCT250
     FM231900 21015G23KT P6SM FEW100=

USA.gov is the U.S. government's official web portal to all federal, state and local government web resources and services.